Time;durP1;ratioP1;P1;durP2;ratioP2;P2;SDS_P1;SDS_P2;PMS_P1;PMS_P2;Temp;Humidity;BMP_temperature;BMP_pressure;BME280_temperature;BME280_humidity;BME280_pressure;Samples;Min_cycle;Max_cycle;Signal;HPM_P1;HPM_P2
2022/07/23 00:01:05;;;;;;;12.23;3.60;;;;;;;25.79;46.39;101546.81;5017160;28;20029;-67
2022/07/23 00:03:30;;;;;;;6.88;3.00;;;;;;;25.75;46.46;101551.03;5034658;28;20036;-66
2022/07/23 00:05:56;;;;;;;5.32;3.17;;;;;;;25.68;46.59;101547.44;5033518;28;20029;-66
2022/07/23 00:08:21;;;;;;;7.07;3.20;;;;;;;25.67;46.61;101559.47;5033353;28;20029;-67
2022/07/23 00:10:46;;;;;;;4.53;2.55;;;;;;;25.62;46.87;101559.25;5034544;28;20021;-67
2022/07/23 00:13:12;;;;;;;7.95;3.53;;;;;;;25.57;46.87;101559.06;5033428;28;20075;-67
2022/07/23 00:15:37;;;;;;;5.43;2.25;;;;;;;25.54;46.77;101564.97;5016787;28;20037;-66
2022/07/23 00:18:02;;;;;;;4.70;3.20;;;;;;;25.50;46.67;101563.66;5033357;28;20242;-67
2022/07/23 00:20:28;;;;;;;5.07;2.80;;;;;;;25.41;46.96;101546.53;5016632;28;20033;-66
2022/07/23 00:22:54;;;;;;;4.82;3.05;;;;;;;25.39;46.85;101562.34;5016738;28;20104;-66
2022/07/23 00:25:23;;;;;;;7.57;3.10;;;;;;;25.33;47.06;101556.84;5033071;28;20040;-66
2022/07/23 00:27:49;;;;;;;5.05;3.65;;;;;;;25.32;46.91;101557.91;5034335;28;20096;-67
2022/07/23 00:30:14;;;;;;;6.95;3.35;;;;;;;25.29;47.22;101558.34;5032873;28;20579;-67
2022/07/23 00:32:51;;;;;;;4.10;2.85;;;;;;;25.26;47.51;101553.25;5032821;28;20360;-66
2022/07/23 00:35:20;;;;;;;4.90;3.00;;;;;;;25.24;47.37;101560.81;5032739;28;20022;-67
2022/07/23 00:37:45;;;;;;;5.68;3.65;;;;;;;25.21;47.28;101561.28;5032837;28;20450;-67
2022/07/23 00:40:11;;;;;;;8.45;3.25;;;;;;;25.17;47.40;101557.25;5034136;28;20121;-66
2022/07/23 00:42:37;;;;;;;4.07;3.00;;;;;;;25.15;47.63;101551.97;5016352;28;20033;-67
2022/07/23 00:45:03;;;;;;;3.50;2.80;;;;;;;25.10;47.04;101551.72;5032887;28;20543;-66
2022/07/23 00:47:29;;;;;;;5.22;3.30;;;;;;;25.08;47.72;101547.50;5032762;28;20056;-67
2022/07/23 00:49:54;;;;;;;4.43;3.13;;;;;;;25.05;47.29;101548.75;5016367;28;20026;-66
2022/07/23 00:52:20;;;;;;;6.10;3.35;;;;;;;25.03;47.19;101539.06;5033938;28;20387;-66
2022/07/23 00:54:45;;;;;;;6.13;3.40;;;;;;;25.00;47.50;101543.06;5032482;28;20044;-66
2022/07/23 00:57:10;;;;;;;3.28;2.92;;;;;;;24.99;47.47;101543.25;5016282;28;20097;-66
2022/07/23 00:59:38;;;;;;;6.45;2.70;;;;;;;24.93;47.49;101536.69;5016124;28;20021;-66
2022/07/23 01:02:03;;;;;;;4.85;2.35;;;;;;;24.89;47.53;101547.25;5033765;28;20375;-66
2022/07/23 01:04:29;;;;;;;4.05;2.83;;;;;;;24.87;47.35;101541.09;5016043;28;20021;-66
2022/07/23 01:06:54;;;;;;;5.82;2.50;;;;;;;24.86;47.35;101533.09;5032389;28;20033;-65
2022/07/23 01:09:20;;;;;;;4.43;2.88;;;;;;;24.83;47.52;101542.56;5032362;28;20029;-66
2022/07/23 01:11:45;;;;;;;3.30;2.33;;;;;;;24.80;47.54;101542.13;5032395;28;20052;-66
2022/07/23 01:14:16;;;;;;;3.45;2.55;;;;;;;24.75;47.51;101542.72;5015861;28;20029;-67
2022/07/23 01:16:42;;;;;;;3.83;2.88;;;;;;;24.73;48.12;101533.03;5016053;28;20033;-66
2022/07/23 01:19:08;;;;;;;6.65;2.42;;;;;;;24.69;47.15;101540.78;5031713;28;20060;-66
2022/07/23 01:21:39;;;;;;;3.65;2.45;;;;;;;24.65;47.84;101534.00;5032282;28;20053;-66
2022/07/23 01:24:06;;;;;;;4.00;2.65;;;;;;;24.58;47.68;101527.69;5015674;28;20025;-65
2022/07/23 01:26:31;;;;;;;6.15;4.15;;;;;;;24.60;47.16;101533.78;5015729;28;20033;-65
2022/07/23 01:28:57;;;;;;;12.27;3.65;;;;;;;24.57;47.93;101536.94;5033344;28;20499;-66
2022/07/23 01:31:22;;;;;;;4.32;3.22;;;;;;;24.55;48.08;101539.03;5033227;28;20037;-66
2022/07/23 01:33:48;;;;;;;4.00;3.05;;;;;;;24.54;48.00;101536.53;5031957;28;20036;-66
2022/07/23 01:36:13;;;;;;;3.65;2.75;;;;;;;24.51;48.16;101532.25;5016043;28;20441;-65
2022/07/23 01:38:38;;;;;;;4.22;2.90;;;;;;;24.48;47.82;101527.22;5031995;28;20402;-66
2022/07/23 01:41:04;;;;;;;5.70;3.10;;;;;;;24.45;48.02;101533.09;5032047;28;20021;-65
2022/07/23 01:43:29;;;;;;;6.75;3.58;;;;;;;24.44;47.66;101534.13;5032150;28;20028;-66
2022/07/23 01:45:55;;;;;;;8.68;2.92;;;;;;;24.41;47.82;101537.28;5015679;28;20402;-65
2022/07/23 01:48:20;;;;;;;8.35;3.15;;;;;;;24.38;47.28;101529.47;5031930;28;20033;-65
2022/07/23 01:50:47;;;;;;;10.32;3.17;;;;;;;24.36;47.98;101523.34;5031894;28;20113;-65
2022/07/23 01:53:13;;;;;;;4.43;3.13;;;;;;;24.35;47.20;101527.13;5031931;28;20032;-65
2022/07/23 01:55:38;;;;;;;3.00;2.38;;;;;;;24.30;48.00;101525.00;5015283;28;20025;-66
2022/07/23 01:58:05;;;;;;;3.25;2.25;;;;;;;24.29;47.52;101525.19;5015355;28;20395;-66
2022/07/23 02:00:30;;;;;;;2.25;1.85;;;;;;;24.23;47.88;101523.28;5015539;28;20033;-65
2022/07/23 02:02:58;;;;;;;3.85;2.47;;;;;;;24.23;48.35;101528.75;5015369;28;20533;-66
2022/07/23 02:05:23;;;;;;;2.60;2.17;;;;;;;24.20;47.62;101540.13;5031792;28;20048;-66
2022/07/23 02:07:48;;;;;;;4.22;3.00;;;;;;;24.18;47.61;101537.56;5032981;28;20029;-65
2022/07/23 02:10:14;;;;;;;4.88;3.72;;;;;;;24.16;47.74;101538.81;5031735;28;20033;-65
2022/07/23 02:12:39;;;;;;;7.68;3.40;;;;;;;24.17;47.39;101537.78;5015213;28;20044;-65
2022/07/23 02:15:05;;;;;;;2.95;2.28;;;;;;;24.13;47.38;101531.84;5015208;28;20037;-65
2022/07/23 02:17:31;;;;;;;7.03;2.58;;;;;;;24.11;47.89;101530.34;5031634;28;20048;-65
2022/07/23 02:19:56;;;;;;;2.72;2.45;;;;;;;24.08;47.83;101530.72;4998928;28;20026;-65
2022/07/23 02:22:21;;;;;;;3.05;1.95;;;;;;;24.04;48.21;101521.19;5015387;28;20033;-65
2022/07/23 02:24:47;;;;;;;1.67;1.50;;;;;;;23.99;47.85;101523.69;5031719;28;20032;-65
2022/07/23 02:27:12;;;;;;;3.92;2.38;;;;;;;23.94;47.62;101515.25;5015119;28;20029;-65
2022/07/23 02:29:37;;;;;;;3.67;2.45;;;;;;;23.94;47.81;101523.44;5031766;28;20025;-65
2022/07/23 02:32:03;;;;;;;4.05;2.10;;;;;;;23.87;48.14;101523.41;5017055;28;20045;-65
2022/07/23 02:34:29;;;;;;;3.05;2.42;;;;;;;23.86;48.53;101520.88;5034977;28;20060;-66
2022/07/23 02:36:54;;;;;;;4.20;1.98;;;;;;;23.84;48.01;101531.19;5036306;28;20029;-65
2022/07/23 02:39:19;;;;;;;4.13;2.50;;;;;;;23.77;48.43;101521.03;5034988;28;20116;-66
2022/07/23 02:41:45;;;;;;;7.95;2.50;;;;;;;23.79;48.02;101523.53;5034933;28;20479;-66
2022/07/23 02:44:10;;;;;;;5.38;2.95;;;;;;;23.77;47.71;101523.75;5034864;28;20021;-66
2022/07/23 02:46:35;;;;;;;5.00;2.80;;;;;;;23.73;48.37;101522.44;5034940;28;20038;-66
2022/07/23 02:49:01;;;;;;;5.60;3.05;;;;;;;23.73;48.08;101527.91;5018366;28;20109;-65
2022/07/23 02:51:26;;;;;;;3.80;2.95;;;;;;;23.71;48.10;101530.00;5034803;28;20068;-66
2022/07/23 02:53:52;;;;;;;3.75;2.63;;;;;;;23.68;47.98;101530.41;5034617;28;20037;-66
2022/07/23 02:56:17;;;;;;;3.80;2.70;;;;;;;23.66;48.27;101526.19;5001938;28;20372;-66
2022/07/23 02:58:43;;;;;;;3.00;2.67;;;;;;;23.63;48.03;101521.94;5018206;28;20034;-66
2022/07/23 03:01:08;;;;;;;3.05;2.47;;;;;;;23.61;47.69;101526.78;5034776;28;20048;-66
2022/07/23 03:03:33;;;;;;;3.45;2.58;;;;;;;23.58;47.96;101523.59;5034694;28;20029;-66
2022/07/23 03:05:59;;;;;;;3.55;2.30;;;;;;;23.56;47.80;101525.69;5017975;28;20483;-66
2022/07/23 03:08:24;;;;;;;4.03;2.10;;;;;;;23.53;48.59;101521.47;5035653;28;20134;-65
2022/07/23 03:10:50;;;;;;;2.38;2.00;;;;;;;23.46;48.34;101528.75;5034618;28;20029;-66
2022/07/23 03:13:15;;;;;;;2.40;1.60;;;;;;;23.48;48.30;101534.03;5034464;28;20026;-66
2022/07/23 03:15:41;;;;;;;3.90;1.92;;;;;;;23.44;47.73;101533.56;5034498;28;20041;-66
2022/07/23 03:18:06;;;;;;;3.13;1.92;;;;;;;23.43;48.65;101541.94;5035648;28;20383;-65
2022/07/23 03:20:31;;;;;;;3.35;1.60;;;;;;;23.37;48.04;101532.59;5035511;28;20506;-65
2022/07/23 03:22:57;;;;;;;3.75;2.35;;;;;;;23.37;48.88;101539.97;5034305;28;20040;-65
2022/07/23 03:25:22;;;;;;;2.00;1.27;;;;;;;23.34;47.99;101535.72;5017757;28;20033;-65
2022/07/23 03:27:47;;;;;;;2.17;1.95;;;;;;;23.27;48.28;101533.97;5017761;28;20100;-65
2022/07/23 03:30:13;;;;;;;4.57;1.80;;;;;;;23.26;48.45;101545.94;5034086;28;20053;-65
2022/07/23 03:32:38;;;;;;;4.00;2.70;;;;;;;23.24;48.07;101545.31;5017796;28;20037;-66
2022/07/23 03:35:04;;;;;;;2.72;1.50;;;;;;;23.20;48.16;101542.94;5034118;28;20095;-65
2022/07/23 03:37:29;;;;;;;4.05;1.33;;;;;;;23.17;48.06;101537.06;5017850;28;20037;-65
2022/07/23 03:39:55;;;;;;;1.90;1.48;;;;;;;23.14;47.80;101542.91;5001010;28;20107;-65
2022/07/23 03:42:20;;;;;;;2.10;1.70;;;;;;;23.12;47.69;101540.34;5034718;28;20567;-65
2022/07/23 03:44:46;;;;;;;2.92;2.58;;;;;;;23.12;48.02;101528.56;5017223;28;20068;-65
2022/07/23 03:47:11;;;;;;;5.60;3.47;;;;;;;23.10;48.30;101536.13;5033788;28;20025;-64
2022/07/23 03:49:36;;;;;;;8.57;3.58;;;;;;;23.11;47.93;101537.81;5000811;28;20380;-65
2022/07/23 03:52:02;;;;;;;5.15;2.22;;;;;;;23.09;48.00;101537.16;5017178;28;20052;-65
2022/07/23 03:54:27;;;;;;;3.03;1.73;;;;;;;23.07;48.49;101540.09;5034742;28;20084;-66
2022/07/23 03:56:53;;;;;;;2.53;1.90;;;;;;;23.07;47.57;101541.97;5033608;28;20033;-65
2022/07/23 03:59:18;;;;;;;5.63;2.15;;;;;;;23.05;48.72;101549.53;5034743;28;20030;-65
2022/07/23 04:01:44;;;;;;;2.53;2.00;;;;;;;23.02;48.34;101545.28;5000982;28;20041;-65
2022/07/23 04:04:09;;;;;;;3.58;2.15;;;;;;;23.02;48.17;101552.63;5033438;28;20029;-66
2022/07/23 04:06:35;;;;;;;2.38;1.73;;;;;;;22.99;48.83;101548.41;5033340;28;20063;-66
2022/07/23 04:09:01;;;;;;;2.83;1.90;;;;;;;22.99;47.95;101558.47;5033413;28;20083;-65
2022/07/23 04:11:27;;;;;;;2.60;1.60;;;;;;;22.98;48.76;101559.50;5033306;28;20394;-65
2022/07/23 04:13:52;;;;;;;3.67;2.00;;;;;;;22.97;47.91;101566.03;5016682;28;20034;-65
2022/07/23 04:16:17;;;;;;;3.40;2.13;;;;;;;22.97;48.10;101563.31;5033370;28;20079;-66
2022/07/23 04:18:43;;;;;;;2.42;1.70;;;;;;;22.96;47.69;101561.59;5016635;28;20056;-66
2022/07/23 04:21:08;;;;;;;1.60;0.90;;;;;;;22.95;48.44;101565.34;5016688;28;20036;-66
2022/07/23 04:23:34;;;;;;;1.70;1.10;;;;;;;22.95;48.43;101565.34;5016518;28;20087;-64
2022/07/23 04:25:59;;;;;;;2.17;1.40;;;;;;;22.95;48.70;101576.28;5016655;28;20068;-66
2022/07/23 04:28:24;;;;;;;0.93;0.82;;;;;;;22.94;48.81;101578.19;5033002;28;20025;-65
2022/07/23 04:30:50;;;;;;;3.15;1.83;;;;;;;22.93;48.61;101578.38;5032908;28;20520;-67
2022/07/23 04:33:15;;;;;;;3.45;2.47;;;;;;;22.99;47.98;101572.16;5032975;28;20563;-66
2022/07/23 04:35:41;;;;;;;3.38;2.45;;;;;;;23.04;48.97;101577.88;5032752;28;20045;-66
2022/07/23 04:38:06;;;;;;;5.35;2.95;;;;;;;23.08;47.88;101576.47;5032774;28;20029;-65
2022/07/23 04:40:31;;;;;;;3.63;2.60;;;;;;;23.13;48.64;101584.94;5032781;28;20072;-65
2022/07/23 04:42:57;;;;;;;4.57;3.35;;;;;;;23.21;48.87;101593.00;5032767;28;20030;-65
2022/07/23 04:45:25;;;;;;;6.10;2.70;;;;;;;23.28;48.67;101593.97;5032726;28;20483;-65
2022/07/23 04:47:51;;;;;;;3.03;2.28;;;;;;;23.33;47.99;101586.00;5032700;28;20478;-66
2022/07/23 04:50:21;;;;;;;4.50;2.55;;;;;;;23.41;48.36;101594.13;5016141;28;20040;-66
2022/07/23 04:52:47;;;;;;;4.05;3.03;;;;;;;23.48;47.83;101592.28;5001051;28;20120;-66
2022/07/23 04:55:13;;;;;;;4.03;2.78;;;;;;;23.56;48.78;101591.34;5015220;28;20029;-66
2022/07/23 04:57:38;;;;;;;5.80;2.90;;;;;;;23.62;48.11;101591.38;5032531;28;20041;-65
2022/07/23 05:00:05;;;;;;;10.32;4.78;;;;;;;23.73;48.51;101596.31;5016093;28;20430;-65
2022/07/23 05:02:31;;;;;;;9.23;5.28;;;;;;;23.86;48.10;101598.34;5015979;28;20021;-66
2022/07/23 05:04:56;;;;;;;7.60;5.18;;;;;;;23.99;48.23;101603.06;5033686;28;20101;-66
2022/07/23 05:07:22;;;;;;;7.13;5.10;;;;;;;24.11;48.52;101598.81;5015978;28;20030;-65
2022/07/23 05:09:47;;;;;;;9.40;4.85;;;;;;;24.23;48.44;101598.03;5032335;28;20422;-66
2022/07/23 05:12:13;;;;;;;14.52;5.53;;;;;;;24.34;48.02;101597.47;5032415;28;20021;-66
2022/07/23 05:14:39;;;;;;;8.48;4.38;;;;;;;24.45;48.26;101595.25;5016016;28;20105;-66
2022/07/23 05:17:04;;;;;;;7.57;4.50;;;;;;;24.57;48.30;101602.69;5032260;28;20092;-66
2022/07/23 05:19:29;;;;;;;11.15;4.88;;;;;;;24.70;47.90;101597.31;5015871;28;20125;-67
2022/07/23 05:21:55;;;;;;;8.68;4.93;;;;;;;24.78;47.71;101599.88;5033712;28;20368;-66
2022/07/23 05:24:20;;;;;;;6.47;4.80;;;;;;;24.89;47.49;101599.34;5033325;28;20025;-66
2022/07/23 05:26:45;;;;;;;9.75;5.28;;;;;;;25.00;48.02;101611.59;5015781;28;20025;-66
2022/07/23 05:29:11;;;;;;;6.47;4.35;;;;;;;25.12;47.65;101617.34;5032124;28;20438;-67
2022/07/23 05:31:36;;;;;;;9.77;4.63;;;;;;;25.23;47.09;101619.50;4998988;28;20140;-67
2022/07/23 05:34:02;;;;;;;5.50;4.55;;;;;;;25.31;47.16;101622.91;5031947;28;20041;-68
2022/07/23 05:36:27;;;;;;;8.90;4.93;;;;;;;25.42;47.24;101618.72;5031922;28;20550;-66
2022/07/23 05:38:52;;;;;;;8.98;5.25;;;;;;;25.53;47.38;101620.88;5031962;28;20120;-67
2022/07/23 05:41:18;;;;;;;7.88;4.72;;;;;;;25.62;47.01;101618.78;5031979;28;20475;-67
2022/07/23 05:43:43;;;;;;;9.52;5.05;;;;;;;25.74;46.92;101615.22;5031900;28;20033;-66
2022/07/23 05:46:09;;;;;;;11.25;5.15;;;;;;;25.84;46.64;101612.91;5031752;28;20025;-66
2022/07/23 05:48:34;;;;;;;6.10;4.25;;;;;;;25.98;46.71;101617.34;5015300;28;20029;-66
2022/07/23 05:51:00;;;;;;;7.88;4.63;;;;;;;26.12;46.38;101620.09;5031859;28;20029;-66
2022/07/23 05:53:26;;;;;;;9.52;4.57;;;;;;;26.26;45.99;101617.16;4999470;28;20037;-68
2022/07/23 05:55:51;;;;;;;9.98;5.03;;;;;;;26.42;46.03;101622.22;5031796;28;20033;-67
2022/07/23 05:58:17;;;;;;;7.10;4.80;;;;;;;26.58;45.57;101626.41;5031815;28;20033;-67
2022/07/23 06:00:42;;;;;;;7.95;4.75;;;;;;;26.73;46.05;101624.25;5031770;28;20052;-67
2022/07/23 06:03:07;;;;;;;14.20;4.75;;;;;;;26.91;45.47;101621.69;5031734;28;20025;-67
2022/07/23 06:05:33;;;;;;;14.00;4.78;;;;;;;27.07;45.19;101631.38;5000527;28;20024;-67
2022/07/23 06:07:58;;;;;;;9.13;4.75;;;;;;;27.22;45.35;101633.88;5035614;28;20394;-66
2022/07/23 06:10:23;;;;;;;9.15;4.97;;;;;;;27.34;45.35;101627.44;5036820;28;20037;-67
2022/07/23 06:12:49;;;;;;;13.73;5.15;;;;;;;27.49;44.96;101627.19;5019295;28;20033;-67
2022/07/23 06:15:14;;;;;;;6.88;4.43;;;;;;;27.61;45.09;101629.00;5018917;28;20033;-67
2022/07/23 06:17:40;;;;;;;9.55;4.57;;;;;;;27.74;44.09;101628.94;5035560;28;20029;-67
2022/07/23 06:20:07;;;;;;;8.98;5.82;;;;;;;27.90;44.62;101630.28;5018902;28;20117;-67
2022/07/23 06:22:32;;;;;;;8.55;4.75;;;;;;;28.03;43.86;101616.44;5019067;28;20418;-67
2022/07/23 06:24:58;;;;;;;8.18;4.90;;;;;;;28.15;44.58;101622.06;5018816;28;20029;-67
2022/07/23 06:27:23;;;;;;;10.07;4.78;;;;;;;28.31;43.43;101629.75;5035253;28;20033;-67
2022/07/23 06:29:48;;;;;;;7.38;4.28;;;;;;;28.45;43.79;101625.78;5035514;28;20035;-67
2022/07/23 06:32:14;;;;;;;8.00;4.65;;;;;;;28.57;43.20;101626.75;5036335;28;20115;-66
2022/07/23 06:34:39;;;;;;;8.20;4.55;;;;;;;28.72;43.17;101631.94;5035446;28;20053;-67
2022/07/23 06:37:05;;;;;;;7.07;4.85;;;;;;;28.86;43.77;101633.47;5035263;28;20082;-68
2022/07/23 06:39:30;;;;;;;9.23;4.55;;;;;;;28.98;43.07;101628.84;5035266;28;20025;-67
2022/07/23 06:41:55;;;;;;;6.65;4.65;;;;;;;29.13;42.60;101634.81;5035248;28;20498;-67
2022/07/23 06:44:21;;;;;;;8.07;4.72;;;;;;;29.26;42.87;101626.41;5036345;28;20030;-66
2022/07/23 06:46:46;;;;;;;8.85;4.80;;;;;;;29.40;42.38;101624.28;5018595;28;20033;-67
2022/07/23 06:49:11;;;;;;;8.80;5.80;;;;;;;29.56;42.27;101629.19;5035046;28;20034;-67
2022/07/23 06:51:37;;;;;;;9.63;5.30;;;;;;;29.70;42.67;101629.81;5035212;28;20033;-66
2022/07/23 06:54:03;;;;;;;9.27;6.20;;;;;;;29.85;41.67;101633.00;5034821;28;20075;-67
2022/07/23 06:56:29;;;;;;;9.07;5.25;;;;;;;29.99;41.71;101626.19;5034641;28;20021;-66
2022/07/23 06:58:54;;;;;;;9.32;5.15;;;;;;;30.17;41.58;101631.66;5034741;28;20560;-66
2022/07/23 07:01:20;;;;;;;7.35;4.85;;;;;;;30.33;41.32;101636.47;5035013;28;20465;-67
2022/07/23 07:03:45;;;;;;;7.18;4.97;;;;;;;30.50;41.25;101643.00;5018276;28;20025;-67
2022/07/23 07:06:11;;;;;;;7.63;4.93;;;;;;;30.67;40.84;101647.78;5034831;28;20034;-67
2022/07/23 07:08:36;;;;;;;8.93;5.00;;;;;;;30.80;40.82;101647.53;5035826;28;20063;-67
2022/07/23 07:11:02;;;;;;;6.43;4.30;;;;;;;30.94;40.52;101652.59;5034578;28;20064;-67
2022/07/23 07:13:27;;;;;;;8.30;5.45;;;;;;;31.04;40.71;101643.69;5034776;28;20021;-67
2022/07/23 07:15:52;;;;;;;12.60;5.68;;;;;;;31.12;40.29;101646.91;5034635;28;20509;-67
2022/07/23 07:18:18;;;;;;;9.05;5.95;;;;;;;31.30;40.12;101656.94;5000799;28;20030;-67
2022/07/23 07:20:43;;;;;;;9.20;6.03;;;;;;;31.41;39.98;101649.72;5035611;28;20032;-67
2022/07/23 07:23:09;;;;;;;12.25;6.40;;;;;;;31.56;40.14;101652.78;5034323;28;20124;-67
2022/07/23 07:25:34;;;;;;;7.97;5.40;;;;;;;31.74;39.77;101662.84;5034435;28;20467;-67
2022/07/23 07:28:00;;;;;;;9.98;6.25;;;;;;;31.92;39.86;101651.53;5034367;28;20053;-67
2022/07/23 07:30:25;;;;;;;9.27;5.93;;;;;;;32.05;39.71;101654.03;5017712;28;20470;-67
2022/07/23 07:32:50;;;;;;;9.52;5.80;;;;;;;32.14;38.61;101656.09;5034162;28;20029;-67
2022/07/23 07:35:16;;;;;;;9.02;6.18;;;;;;;32.30;38.57;101648.06;5035243;28;20075;-67
2022/07/23 07:37:41;;;;;;;15.95;7.28;;;;;;;32.36;38.83;101653.41;5034260;28;20055;-67
2022/07/23 07:40:07;;;;;;;10.95;6.28;;;;;;;32.53;38.90;101659.78;5034140;28;20383;-67
2022/07/23 07:42:33;;;;;;;12.85;6.95;;;;;;;32.68;37.94;101651.72;5033294;28;20029;-67
2022/07/23 07:44:58;;;;;;;13.95;6.82;;;;;;;32.83;38.86;101654.72;5034072;28;20025;-67
2022/07/23 07:47:23;;;;;;;9.70;6.82;;;;;;;33.01;37.31;101652.72;5033370;28;20044;-67
2022/07/23 07:49:49;;;;;;;9.75;6.38;;;;;;;33.16;38.13;101653.81;5033883;28;20025;-67
2022/07/23 07:52:14;;;;;;;10.02;6.47;;;;;;;33.28;37.64;101656.44;5017253;28;20041;-67
2022/07/23 07:54:40;;;;;;;12.00;6.15;;;;;;;33.38;37.37;101656.56;5033755;28;20471;-67
2022/07/23 07:57:05;;;;;;;10.35;6.85;;;;;;;33.51;37.79;101667.28;5033736;28;20467;-67
2022/07/23 07:59:30;;;;;;;11.63;5.80;;;;;;;33.65;36.93;101663.00;5034494;28;20095;-67
2022/07/23 08:01:56;;;;;;;10.80;6.60;;;;;;;33.79;36.62;101669.84;5032909;28;20399;-67
2022/07/23 08:04:21;;;;;;;9.85;5.80;;;;;;;33.93;37.16;101679.44;5032282;28;20407;-67
2022/07/23 08:06:46;;;;;;;7.97;5.32;;;;;;;34.08;36.66;101677.94;5032822;28;20127;-67
2022/07/23 08:09:12;;;;;;;9.45;5.85;;;;;;;34.19;36.02;101680.56;5034076;28;20048;-67
2022/07/23 08:11:37;;;;;;;10.18;5.45;;;;;;;34.32;35.64;101682.03;5033442;28;20032;-67
2022/07/23 08:14:02;;;;;;;14.63;5.65;;;;;;;34.42;36.06;101684.91;5033736;28;20452;-67
2022/07/23 08:16:28;;;;;;;9.90;5.32;;;;;;;34.52;36.01;101680.25;5033742;28;20035;-67
2022/07/23 08:18:54;;;;;;;14.65;4.65;;;;;;;34.64;34.69;101673.69;5035216;28;20045;-67
2022/07/23 08:21:19;;;;;;;8.80;4.78;;;;;;;34.75;34.59;101673.47;5033815;28;20025;-67
2022/07/23 08:23:45;;;;;;;8.55;5.03;;;;;;;34.87;34.51;101665.72;5033329;28;20196;-67
2022/07/23 08:26:10;;;;;;;8.35;5.20;;;;;;;34.97;34.58;101665.81;5033454;28;20453;-67
2022/07/23 08:28:36;;;;;;;9.43;5.78;;;;;;;35.06;34.51;101672.56;5034343;28;20040;-67
2022/07/23 08:31:01;;;;;;;10.05;4.47;;;;;;;35.19;33.52;101673.16;5032891;28;20458;-67
2022/07/23 08:33:27;;;;;;;7.93;4.65;;;;;;;35.24;34.32;101674.03;5033127;28;20044;-67
2022/07/23 08:35:52;;;;;;;12.38;4.03;;;;;;;35.35;34.23;101683.25;5032761;28;20483;-67
2022/07/23 08:38:20;;;;;;;6.47;4.55;;;;;;;35.43;32.83;101674.41;5032742;28;20039;-68
2022/07/23 08:40:49;;;;;;;6.70;4.05;;;;;;;35.54;33.02;101690.03;5016165;28;20036;-68
2022/07/23 08:43:21;;;;;;;6.68;4.90;;;;;;;35.66;32.97;101690.66;5032743;28;20040;-68
2022/07/23 08:45:50;;;;;;;9.38;4.88;;;;;;;35.78;33.11;101688.47;5032741;28;20064;-67
2022/07/23 08:48:18;;;;;;;7.75;4.53;;;;;;;35.88;32.92;101688.47;5032661;28;20030;-68
2022/07/23 08:50:46;;;;;;;7.25;3.42;;;;;;;35.97;31.97;101686.81;5032601;28;20029;-68
2022/07/23 08:53:11;;;;;;;6.72;3.90;;;;;;;36.10;32.20;101694.66;5016368;28;20539;-68
2022/07/23 08:55:36;;;;;;;6.25;3.83;;;;;;;36.22;31.96;101698.03;5032503;28;20164;-68
2022/07/23 08:58:02;;;;;;;5.32;3.88;;;;;;;36.34;31.39;101692.16;5033678;28;20108;-68
2022/07/23 09:00:28;;;;;;;7.60;4.20;;;;;;;36.49;31.70;101686.56;5015993;28;20025;-68
2022/07/23 09:02:53;;;;;;;8.45;4.07;;;;;;;36.60;31.53;101693.03;5016002;28;20025;-68
2022/07/23 09:05:19;;;;;;;7.68;3.83;;;;;;;36.70;30.38;101693.00;5032571;28;20104;-67
2022/07/23 09:08:10;;;;;;;7.63;3.75;;;;;;;36.80;30.86;101701.34;5032392;28;20033;-67
2022/07/23 09:11:03;;;;;;;11.60;3.67;;;;;;;36.92;30.75;101681.47;5015770;28;20549;-67
2022/07/23 09:13:30;;;;;;;5.38;3.45;;;;;;;37.07;30.79;101690.69;5029431;28;20506;-68
2022/07/23 09:16:14;;;;;;;7.22;4.25;;;;;;;37.15;29.84;101687.31;5033556;28;20429;-67
2022/07/23 09:18:41;;;;;;;6.00;3.95;;;;;;;37.25;30.13;101692.84;5031982;28;20022;-68
2022/07/23 09:21:28;;;;;;;7.10;3.85;;;;;;;37.34;29.94;101693.09;5032211;28;20021;-68
2022/07/23 09:24:04;;;;;;;6.90;4.43;;;;;;;37.45;29.79;101691.13;5015650;28;20124;-67
2022/07/23 09:26:32;;;;;;;4.00;3.03;;;;;;;37.51;30.08;101689.97;5015743;28;20033;-67
2022/07/23 09:29:10;;;;;;;7.72;4.43;;;;;;;37.61;29.92;101684.31;5033136;28;20071;-68
2022/07/23 09:31:44;;;;;;;4.32;3.08;;;;;;;37.68;29.50;101673.66;5033113;28;20045;-68
2022/07/23 09:34:11;;;;;;;7.25;3.13;;;;;;;37.80;29.25;101676.94;5031919;28;20048;-68
2022/07/23 09:36:37;;;;;;;4.43;3.28;;;;;;;37.87;29.32;101680.22;5033165;28;20417;-68
2022/07/23 09:39:03;;;;;;;4.82;3.70;;;;;;;37.95;28.84;101668.44;5031970;28;20112;-68
2022/07/23 09:41:35;;;;;;;7.93;3.45;;;;;;;38.08;28.34;101676.19;5021431;28;20033;-68
2022/07/23 09:44:16;;;;;;;6.07;4.18;;;;;;;38.20;28.18;101676.66;5021920;28;20029;-68
2022/07/23 09:46:45;;;;;;;13.80;3.78;;;;;;;38.35;28.59;101673.75;5039909;28;20434;-68
2022/07/23 09:49:19;;;;;;;11.02;2.95;;;;;;;38.49;29.18;101678.66;5021891;28;20505;-67
2022/07/23 09:51:52;;;;;;;9.23;4.10;;;;;;;38.60;28.95;101678.28;5039607;28;20030;-68
2022/07/23 09:54:33;;;;;;;8.07;4.00;;;;;;;38.68;28.58;101665.56;5038357;28;20535;-68
2022/07/23 09:57:07;;;;;;;5.88;3.60;;;;;;;38.80;27.75;101680.91;5038266;28;20518;-68
2022/07/23 09:59:35;;;;;;;5.05;3.90;;;;;;;38.94;28.48;101687.47;5038396;28;20112;-68
2022/07/23 10:02:01;;;;;;;5.40;3.38;;;;;;;39.11;27.80;101686.97;5039452;28;20033;-68
2022/07/23 10:04:29;;;;;;;5.00;3.90;;;;;;;39.36;27.36;101680.25;5038264;28;20416;-68
2022/07/23 10:06:57;;;;;;;6.10;3.17;;;;;;;39.69;26.94;101682.03;5038218;28;20025;-68
2022/07/23 10:09:26;;;;;;;9.15;8.60;;;;;;;40.13;26.62;101682.50;5038248;28;20025;-68
2022/07/23 10:11:58;;;;;;;12.23;11.35;;;;;;;40.70;26.00;101680.38;5038138;28;20169;-68
2022/07/23 10:14:24;;;;;;;5.03;3.53;;;;;;;41.43;25.73;101671.91;5038164;28;20053;-67
2022/07/23 10:16:50;;;;;;;6.00;3.20;;;;;;;42.37;25.06;101674.69;5021967;28;20056;-68
2022/07/23 10:19:16;;;;;;;3.47;3.17;;;;;;;42.95;23.82;101668.91;5038263;28;20056;-68
2022/07/23 10:21:48;;;;;;;4.78;3.50;;;;;;;42.76;24.04;101665.47;5038144;28;20025;-68
2022/07/23 10:24:41;;;;;;;3.72;2.63;;;;;;;42.32;24.26;101675.69;5038202;28;20017;-68
2022/07/23 10:27:44;;;;;;;4.35;2.80;;;;;;;41.96;25.03;101668.41;5039271;28;20025;-68
2022/07/23 10:30:19;;;;;;;4.82;3.08;;;;;;;41.77;24.85;101671.38;5039004;28;20107;-68
2022/07/23 10:33:19;;;;;;;5.22;2.58;;;;;;;41.70;24.76;101668.16;5039167;28;20072;-67
2022/07/23 10:35:54;;;;;;;5.57;2.30;;;;;;;41.69;24.48;101667.31;5036945;28;20071;-67
2022/07/23 10:38:30;;;;;;;3.95;2.17;;;;;;;41.75;23.99;101668.91;5038126;28;20036;-68
2022/07/23 10:41:02;;;;;;;2.55;2.08;;;;;;;41.86;24.25;101665.84;5038063;28;20119;-67
2022/07/23 10:43:28;;;;;;;5.38;2.63;;;;;;;41.96;24.15;101665.59;5021569;28;20025;-68
2022/07/23 10:45:54;;;;;;;5.28;2.20;;;;;;;42.04;23.73;101668.50;5037980;28;20022;-68
2022/07/23 10:48:26;;;;;;;4.78;2.05;;;;;;;42.20;23.22;101663.31;5021647;28;20063;-67
2022/07/23 10:51:13;;;;;;;3.70;2.25;;;;;;;42.39;23.60;101658.28;5037355;28;20021;-68
2022/07/23 10:53:50;;;;;;;2.72;2.03;;;;;;;42.61;22.79;101665.91;5034249;28;20025;-68
2022/07/23 10:56:16;;;;;;;3.35;2.40;;;;;;;42.77;22.89;101667.97;5034945;28;20123;-68
2022/07/23 10:58:47;;;;;;;3.63;2.75;;;;;;;42.90;22.88;101663.38;5034575;28;20455;-68
2022/07/23 11:01:36;;;;;;;2.85;2.15;;;;;;;43.11;22.27;101658.03;5034597;28;20483;-69
2022/07/23 11:04:04;;;;;;;2.50;2.40;;;;;;;43.24;22.27;101660.72;5034279;28;20029;-68
2022/07/23 11:06:48;;;;;;;3.75;3.38;;;;;;;43.42;22.04;101667.22;5034329;28;20023;-68
2022/07/23 11:09:37;;;;;;;3.42;2.83;;;;;;;43.48;21.98;101660.25;5035539;28;20025;-68
2022/07/23 11:12:21;;;;;;;7.97;2.67;;;;;;;43.60;22.20;101657.63;5034551;28;20029;-68
2022/07/23 11:15:04;;;;;;;2.70;2.28;;;;;;;43.71;22.31;101653.31;5034094;28;20029;-68
2022/07/23 11:17:56;;;;;;;2.35;1.70;;;;;;;43.79;22.29;101660.97;5035367;28;20032;-68
2022/07/23 11:20:23;;;;;;;2.00;1.80;;;;;;;43.88;22.08;101663.81;5035389;28;20148;-68
2022/07/23 11:22:55;;;;;;;3.53;1.80;;;;;;;43.99;21.44;101654.66;5034230;28;20479;-67
2022/07/23 11:25:21;;;;;;;8.23;1.90;;;;;;;43.99;21.36;101654.66;5034248;28;20111;-69